createdAt,value
2023-10-06T00:00:00.496Z,1002.13
2023-10-06T00:00:10.530Z,1002.13
2023-10-06T00:00:20.493Z,1002.14
2023-10-06T00:00:40.500Z,1002.13
2023-10-06T00:00:50.532Z,1002.14
2023-10-06T00:01:00.498Z,1002.14
2023-10-06T00:01:10.551Z,1002.14
2023-10-06T00:01:20.545Z,1002.13
2023-10-06T00:01:30.601Z,1002.14
2023-10-06T00:01:50.568Z,1002.14
2023-10-06T00:02:00.551Z,1002.14
2023-10-06T00:02:10.639Z,1002.14
2023-10-06T00:02:20.589Z,1002.14
2023-10-06T00:02:30.986Z,1002.15
2023-10-06T00:02:40.588Z,1002.15
2023-10-06T00:02:50.579Z,1002.15
2023-10-06T00:03:00.622Z,1002.15
2023-10-06T00:03:20.538Z,1002.16
2023-10-06T00:03:30.570Z,1002.16
2023-10-06T00:03:40.504Z,1002.17
2023-10-06T00:03:50.530Z,1002.17
2023-10-06T00:04:00.583Z,1002.17
2023-10-06T00:04:10.512Z,1002.17
2023-10-06T00:04:30.513Z,1002.17
2023-10-06T00:04:40.521Z,1002.17
2023-10-06T00:04:50.538Z,1002.17
2023-10-06T00:05:00.578Z,1002.17
2023-10-06T00:05:10.508Z,1002.17
2023-10-06T00:05:20.504Z,1002.17
2023-10-06T00:05:30.503Z,1002.17
2023-10-06T00:05:40.541Z,1002.18
2023-10-06T00:05:50.553Z,1002.18
2023-10-06T00:06:10.509Z,1002.17
2023-10-06T00:06:20.508Z,1002.17
2023-10-06T00:06:30.528Z,1002.17
2023-10-06T00:06:40.518Z,1002.18
2023-10-06T00:06:50.515Z,1002.18
2023-10-06T00:07:00.532Z,1002.17
2023-10-06T00:07:10.528Z,1002.17
2023-10-06T00:07:20.511Z,1002.17
2023-10-06T00:07:30.633Z,1002.18
2023-10-06T00:07:40.574Z,1002.17
2023-10-06T00:08:00.582Z,1002.17
2023-10-06T00:08:10.554Z,1002.17
2023-10-06T00:08:20.539Z,1002.18
2023-10-06T00:08:30.523Z,1002.18
2023-10-06T00:08:40.526Z,1002.18
2023-10-06T00:08:50.539Z,1002.18
2023-10-06T00:09:00.528Z,1002.18
2023-10-06T00:09:20.548Z,1002.19
2023-10-06T00:09:30.551Z,1002.19
2023-10-06T00:09:40.528Z,1002.19
2023-10-06T00:09:50.535Z,1002.19
2023-10-06T00:10:00.700Z,1002.19
2023-10-06T00:10:10.526Z,1002.20
2023-10-06T00:10:20.584Z,1002.20
2023-10-06T00:10:30.576Z,1002.21
2023-10-06T00:10:40.641Z,1002.21
2023-10-06T00:10:50.568Z,1002.21
2023-10-06T00:11:10.554Z,1002.21
2023-10-06T00:11:20.548Z,1002.21
2023-10-06T00:11:30.566Z,1002.22
2023-10-06T00:11:40.561Z,1002.22
2023-10-06T00:11:50.556Z,1002.22
2023-10-06T00:12:00.533Z,1002.23
2023-10-06T00:12:20.545Z,1002.22
2023-10-06T00:12:30.564Z,1002.21
2023-10-06T00:12:40.534Z,1002.22
2023-10-06T00:12:50.561Z,1002.23
2023-10-06T00:13:00.556Z,1002.22
2023-10-06T00:13:10.582Z,1002.23
2023-10-06T00:13:20.645Z,1002.23
2023-10-06T00:13:40.634Z,1002.21
2023-10-06T00:13:50.568Z,1002.21
2023-10-06T00:14:00.590Z,1002.21
2023-10-06T00:14:10.567Z,1002.21
2023-10-06T00:14:20.539Z,1002.20
2023-10-06T00:14:30.536Z,1002.20
2023-10-06T00:14:50.575Z,1002.19
2023-10-06T00:15:00.540Z,1002.18
2023-10-06T00:15:10.570Z,1002.18
2023-10-06T00:15:20.548Z,1002.18
2023-10-06T00:15:30.537Z,1002.17
2023-10-06T00:15:40.566Z,1002.18
2023-10-06T00:16:00.580Z,1002.18
2023-10-06T00:16:11.491Z,1002.17
2023-10-06T00:16:20.671Z,1002.16
2023-10-06T00:16:30.637Z,1002.16
2023-10-06T00:16:40.840Z,1002.16
2023-10-06T00:16:50.647Z,1002.15
2023-10-06T00:17:00.615Z,1002.15
2023-10-06T00:17:20.969Z,1002.13
2023-10-06T00:17:30.618Z,1002.13
2023-10-06T00:17:40.584Z,1002.14
2023-10-06T00:17:50.623Z,1002.13
2023-10-06T00:18:00.646Z,1002.14
2023-10-06T00:18:10.634Z,1002.13
2023-10-06T00:18:20.609Z,1002.12
2023-10-06T00:18:40.567Z,1002.12
2023-10-06T00:18:50.553Z,1002.11
2023-10-06T00:19:00.602Z,1002.12
2023-10-06T00:19:10.571Z,1002.12
2023-10-06T00:19:20.585Z,1002.11
2023-10-06T00:19:30.595Z,1002.11
2023-10-06T00:19:40.658Z,1002.11
2023-10-06T00:19:50.596Z,1002.11
2023-10-06T00:20:10.584Z,1002.11
2023-10-06T00:20:20.571Z,1002.11
2023-10-06T00:20:30.556Z,1002.11
2023-10-06T00:20:40.795Z,1002.10
2023-10-06T00:20:50.645Z,1002.11
2023-10-06T00:21:00.582Z,1002.11
2023-10-06T00:21:10.611Z,1002.10
2023-10-06T00:21:20.576Z,1002.09
2023-10-06T00:21:30.592Z,1002.09
2023-10-06T00:21:40.604Z,1002.09
2023-10-06T00:21:50.594Z,1002.10
2023-10-06T00:22:00.594Z,1002.09
2023-10-06T00:22:20.599Z,1002.09
2023-10-06T00:22:30.751Z,1002.09
2023-10-06T00:22:40.662Z,1002.09
2023-10-06T00:22:50.619Z,1002.09
2023-10-06T00:23:00.640Z,1002.09
2023-10-06T00:23:10.723Z,1002.09
2023-10-06T00:23:20.650Z,1002.09
2023-10-06T00:23:30.602Z,1002.09
2023-10-06T00:23:40.600Z,1002.09
2023-10-06T00:23:50.616Z,1002.09
2023-10-06T00:24:00.609Z,1002.10
2023-10-06T00:24:20.574Z,1002.10
2023-10-06T00:24:30.610Z,1002.10
2023-10-06T00:24:40.610Z,1002.11
2023-10-06T00:24:50.617Z,1002.11
2023-10-06T00:25:00.786Z,1002.11
2023-10-06T00:25:10.606Z,1002.12
2023-10-06T00:25:20.609Z,1002.12
2023-10-06T00:25:40.615Z,1002.12
2023-10-06T00:25:50.652Z,1002.12
2023-10-06T00:26:00.667Z,1002.12
2023-10-06T00:26:10.596Z,1002.12
2023-10-06T00:26:20.603Z,1002.13
2023-10-06T00:26:30.590Z,1002.13
2023-10-06T00:26:40.585Z,1002.13
2023-10-06T00:26:50.608Z,1002.12
2023-10-06T00:27:00.640Z,1002.13
2023-10-06T00:27:20.622Z,1002.13
2023-10-06T00:27:30.653Z,1002.14
2023-10-06T00:27:40.627Z,1002.13
2023-10-06T00:27:50.626Z,1002.13
2023-10-06T00:28:00.601Z,1002.13
2023-10-06T00:28:10.597Z,1002.14
2023-10-06T00:28:20.654Z,1002.13
2023-10-06T00:28:30.668Z,1002.13
2023-10-06T00:28:50.635Z,1002.13
2023-10-06T00:29:00.665Z,1002.14
2023-10-06T00:29:10.865Z,1002.12
2023-10-06T00:29:20.621Z,1002.11
2023-10-06T00:29:30.603Z,1002.11
2023-10-06T00:29:40.617Z,1002.11
2023-10-06T00:30:00.692Z,1002.12
2023-10-06T00:30:10.641Z,1002.11
2023-10-06T00:30:20.610Z,1002.11
2023-10-06T00:30:30.598Z,1002.11
2023-10-06T00:30:40.643Z,1002.11
2023-10-06T00:30:50.641Z,1002.10
2023-10-06T00:31:00.644Z,1002.11
2023-10-06T00:31:20.650Z,1002.10
2023-10-06T00:31:30.775Z,1002.10
2023-10-06T00:31:40.726Z,1002.10
2023-10-06T00:31:50.668Z,1002.10
2023-10-06T00:32:00.724Z,1002.10
2023-10-06T00:32:10.746Z,1002.10
2023-10-06T00:32:20.639Z,1002.10
2023-10-06T00:32:40.658Z,1002.09
2023-10-06T00:32:50.690Z,1002.10
2023-10-06T00:33:00.730Z,1002.10
2023-10-06T00:33:10.671Z,1002.10
2023-10-06T00:33:20.653Z,1002.09
2023-10-06T00:33:30.606Z,1002.09
2023-10-06T00:33:40.691Z,1002.09
2023-10-06T00:34:00.611Z,1002.09
2023-10-06T00:34:10.623Z,1002.09
2023-10-06T00:34:20.626Z,1002.08
2023-10-06T00:34:30.642Z,1002.08
2023-10-06T00:34:40.655Z,1002.08
2023-10-06T00:34:50.685Z,1002.08
2023-10-06T00:35:00.654Z,1002.08
2023-10-06T00:35:10.656Z,1002.07
2023-10-06T00:35:20.648Z,1002.07
2023-10-06T00:35:31.463Z,1002.08
2023-10-06T00:35:40.656Z,1002.08
2023-10-06T00:35:50.661Z,1002.07
2023-10-06T00:36:00.652Z,1002.07
2023-10-06T00:36:11.444Z,1002.06
2023-10-06T00:36:20.655Z,1002.06
2023-10-06T00:36:40.651Z,1002.06
2023-10-06T00:36:50.659Z,1002.07
2023-10-06T00:37:00.649Z,1002.07
2023-10-06T00:37:10.662Z,1002.07
2023-10-06T00:37:20.652Z,1002.07
2023-10-06T00:37:30.680Z,1002.08
2023-10-06T00:37:50.674Z,1002.07
2023-10-06T00:38:00.660Z,1002.07
2023-10-06T00:38:10.662Z,1002.08
2023-10-06T00:38:20.635Z,1002.08
2023-10-06T00:38:30.628Z,1002.08
2023-10-06T00:38:40.662Z,1002.08
2023-10-06T00:38:50.681Z,1002.08
2023-10-06T00:39:10.665Z,1002.08
2023-10-06T00:39:20.671Z,1002.08
2023-10-06T00:39:30.636Z,1002.09
2023-10-06T00:39:40.659Z,1002.09
2023-10-06T00:39:50.666Z,1002.10
2023-10-06T00:40:00.637Z,1002.09
2023-10-06T00:40:10.683Z,1002.09
2023-10-06T00:40:30.698Z,1002.09
2023-10-06T00:40:41.424Z,1002.10
2023-10-06T00:40:51.443Z,1002.10
2023-10-06T00:41:00.712Z,1002.11
2023-10-06T00:41:10.649Z,1002.11
2023-10-06T00:41:20.677Z,1002.10
2023-10-06T00:41:40.677Z,1002.11
2023-10-06T00:41:50.679Z,1002.12
2023-10-06T00:42:00.654Z,1002.12
2023-10-06T00:42:10.680Z,1002.12
2023-10-06T00:42:20.700Z,1002.12
2023-10-06T00:42:30.653Z,1002.13
2023-10-06T00:42:50.686Z,1002.13
2023-10-06T00:43:00.681Z,1002.13
2023-10-06T00:43:10.654Z,1002.14
2023-10-06T00:43:20.661Z,1002.13
2023-10-06T00:43:30.683Z,1002.13
2023-10-06T00:43:40.785Z,1002.13
2023-10-06T00:43:50.750Z,1002.14
2023-10-06T00:44:00.740Z,1002.15
2023-10-06T00:44:10.686Z,1002.15
2023-10-06T00:44:20.682Z,1002.14
2023-10-06T00:44:30.664Z,1002.13
2023-10-06T00:44:40.683Z,1002.13
2023-10-06T00:45:00.661Z,1002.13
2023-10-06T00:45:10.699Z,1002.13
2023-10-06T00:45:20.673Z,1002.13
2023-10-06T00:45:30.689Z,1002.14
2023-10-06T00:45:40.692Z,1002.14
2023-10-06T00:45:50.694Z,1002.13
2023-10-06T00:46:10.710Z,1002.11
2023-10-06T00:46:20.668Z,1002.11
2023-10-06T00:46:30.736Z,1002.11
2023-10-06T00:46:40.713Z,1002.11
2023-10-06T00:46:50.821Z,1002.11
2023-10-06T00:47:00.936Z,1002.11
2023-10-06T00:47:20.742Z,1002.10
2023-10-06T00:47:30.779Z,1002.10
2023-10-06T00:47:40.900Z,1002.09
2023-10-06T00:47:50.788Z,1002.09
2023-10-06T00:48:00.780Z,1002.09
2023-10-06T00:48:10.741Z,1002.09
2023-10-06T00:48:20.722Z,1002.10
2023-10-06T00:48:30.812Z,1002.09
2023-10-06T00:48:40.793Z,1002.09
2023-10-06T00:48:50.709Z,1002.08
2023-10-06T00:49:00.687Z,1002.08
2023-10-06T00:49:10.829Z,1002.07
2023-10-06T00:49:20.718Z,1002.09
2023-10-06T00:49:30.721Z,1002.09
2023-10-06T00:49:50.748Z,1002.08
2023-10-06T00:50:00.769Z,1002.09
2023-10-06T00:50:10.778Z,1002.10
2023-10-06T00:50:20.702Z,1002.10
2023-10-06T00:50:30.703Z,1002.09
2023-10-06T00:50:40.709Z,1002.09
2023-10-06T00:51:00.715Z,1002.09
2023-10-06T00:51:10.715Z,1002.10
2023-10-06T00:51:21.139Z,1002.10
2023-10-06T00:51:30.719Z,1002.10
2023-10-06T00:51:40.720Z,1002.10
2023-10-06T00:51:50.688Z,1002.10
2023-10-06T00:52:00.737Z,1002.10
2023-10-06T00:52:20.693Z,1002.10
2023-10-06T00:52:30.751Z,1002.10
2023-10-06T00:52:40.766Z,1002.10
2023-10-06T00:52:50.732Z,1002.11
2023-10-06T00:53:00.728Z,1002.11
2023-10-06T00:53:10.720Z,1002.11
2023-10-06T00:53:20.738Z,1002.11
2023-10-06T00:53:30.715Z,1002.11
2023-10-06T00:53:41.454Z,1002.11
2023-10-06T00:54:00.727Z,1002.11
2023-10-06T00:54:10.747Z,1002.11
2023-10-06T00:54:20.704Z,1002.11
2023-10-06T00:54:30.691Z,1002.11
2023-10-06T00:54:40.728Z,1002.12
2023-10-06T00:54:50.726Z,1002.12
2023-10-06T00:55:00.730Z,1002.11
2023-10-06T00:55:20.775Z,1002.11
2023-10-06T00:55:30.897Z,1002.11
2023-10-06T00:55:40.870Z,1002.10
2023-10-06T00:55:50.763Z,1002.10
2023-10-06T00:56:00.816Z,1002.10
2023-10-06T00:56:10.783Z,1002.09
2023-10-06T00:56:30.822Z,1002.09
2023-10-06T00:56:40.792Z,1002.08
2023-10-06T00:56:50.821Z,1002.07
2023-10-06T00:57:00.832Z,1002.07
2023-10-06T00:57:10.749Z,1002.08
2023-10-06T00:57:20.746Z,1002.07
2023-10-06T00:57:40.750Z,1002.06
2023-10-06T00:57:50.742Z,1002.06
2023-10-06T00:58:00.726Z,1002.06
2023-10-06T00:58:10.729Z,1002.06
2023-10-06T00:58:20.755Z,1002.05
2023-10-06T00:58:30.767Z,1002.04
2023-10-06T00:58:40.833Z,1002.05
2023-10-06T00:59:00.753Z,1002.04
2023-10-06T00:59:10.998Z,1002.04
2023-10-06T00:59:20.726Z,1002.05
2023-10-06T00:59:30.753Z,1002.04
2023-10-06T00:59:40.766Z,1002.03
2023-10-06T00:59:50.751Z,1002.04
2023-10-06T01:00:00.743Z,1002.04
2023-10-06T01:00:20.732Z,1002.03
2023-10-06T01:00:30.787Z,1002.02
2023-10-06T01:00:40.729Z,1002.03
2023-10-06T01:00:50.753Z,1002.03
2023-10-06T01:01:00.762Z,1002.03
2023-10-06T01:01:10.769Z,1002.03
2023-10-06T01:01:20.762Z,1002.03
2023-10-06T01:01:40.844Z,1002.02
2023-10-06T01:01:50.854Z,1002.02
2023-10-06T01:02:01.519Z,1002.02
2023-10-06T01:02:10.803Z,1002.02
2023-10-06T01:02:20.824Z,1002.01
2023-10-06T01:02:30.839Z,1002.02
2023-10-06T01:02:40.888Z,1002.02
2023-10-06T01:02:50.896Z,1002.02
2023-10-06T01:03:10.878Z,1002.02
2023-10-06T01:03:20.847Z,1002.02
2023-10-06T01:03:30.896Z,1002.03
2023-10-06T01:03:40.847Z,1002.03
2023-10-06T01:03:50.896Z,1002.03
2023-10-06T01:04:00.788Z,1002.03
2023-10-06T01:04:20.791Z,1002.04
2023-10-06T01:04:30.930Z,1002.03
2023-10-06T01:04:40.806Z,1002.04
2023-10-06T01:04:50.827Z,1002.03
2023-10-06T01:05:00.812Z,1002.03
2023-10-06T01:05:11.453Z,1002.04
2023-10-06T01:05:30.753Z,1002.04
2023-10-06T01:05:40.744Z,1002.04
2023-10-06T01:05:50.753Z,1002.04
2023-10-06T01:06:00.758Z,1002.04
2023-10-06T01:06:10.782Z,1002.05
2023-10-06T01:06:20.799Z,1002.05
2023-10-06T01:06:30.786Z,1002.05
2023-10-06T01:06:40.763Z,1002.04
2023-10-06T01:06:50.780Z,1002.05
2023-10-06T01:07:00.792Z,1002.05
2023-10-06T01:07:10.791Z,1002.05
2023-10-06T01:07:30.809Z,1002.05
2023-10-06T01:07:40.808Z,1002.05
2023-10-06T01:07:51.178Z,1002.05
2023-10-06T01:08:00.823Z,1002.05
2023-10-06T01:08:10.802Z,1002.05
2023-10-06T01:08:22.247Z,1002.05
2023-10-06T01:08:30.789Z,1002.06
2023-10-06T01:08:50.802Z,1002.05
2023-10-06T01:09:00.788Z,1002.05
2023-10-06T01:09:11.014Z,1002.06
2023-10-06T01:09:20.784Z,1002.06
2023-10-06T01:09:30.787Z,1002.06
2023-10-06T01:09:40.809Z,1002.06
2023-10-06T01:09:50.804Z,1002.07
2023-10-06T01:10:10.774Z,1002.07
2023-10-06T01:10:20.815Z,1002.08
2023-10-06T01:10:30.785Z,1002.08
2023-10-06T01:10:40.806Z,1002.08
2023-10-06T01:10:50.828Z,1002.09
2023-10-06T01:11:00.853Z,1002.09
2023-10-06T01:11:10.829Z,1002.08
2023-10-06T01:11:30.807Z,1002.09
2023-10-06T01:11:40.787Z,1002.09
2023-10-06T01:11:50.791Z,1002.09
2023-10-06T01:12:00.788Z,1002.09
2023-10-06T01:12:10.812Z,1002.10
2023-10-06T01:12:21.421Z,1002.11
2023-10-06T01:12:30.831Z,1002.11
2023-10-06T01:12:40.810Z,1002.11
2023-10-06T01:12:50.823Z,1002.10
2023-10-06T01:13:00.794Z,1002.10
2023-10-06T01:13:20.816Z,1002.10
2023-10-06T01:13:30.787Z,1002.10
2023-10-06T01:13:40.812Z,1002.10
2023-10-06T01:13:50.860Z,1002.10
2023-10-06T01:14:00.837Z,1002.10
2023-10-06T01:14:10.823Z,1002.10
2023-10-06T01:14:20.843Z,1002.10
2023-10-06T01:14:30.811Z,1002.10
2023-10-06T01:14:50.823Z,1002.10
2023-10-06T01:15:00.807Z,1002.10
2023-10-06T01:15:10.813Z,1002.10
2023-10-06T01:15:20.936Z,1002.10
2023-10-06T01:15:31.015Z,1002.10
2023-10-06T01:15:40.792Z,1002.11
2023-10-06T01:15:51.082Z,1002.10
2023-10-06T01:16:10.861Z,1002.11
2023-10-06T01:16:20.931Z,1002.11
2023-10-06T01:16:30.846Z,1002.10
2023-10-06T01:16:40.863Z,1002.11
2023-10-06T01:16:50.859Z,1002.11
2023-10-06T01:17:00.873Z,1002.11
2023-10-06T01:17:20.868Z,1002.11
2023-10-06T01:17:30.849Z,1002.11
2023-10-06T01:17:40.860Z,1002.12
2023-10-06T01:17:50.869Z,1002.12
2023-10-06T01:18:00.893Z,1002.12
2023-10-06T01:18:10.823Z,1002.11
2023-10-06T01:18:20.840Z,1002.11
2023-10-06T01:18:30.841Z,1002.12
2023-10-06T01:18:40.832Z,1002.12
2023-10-06T01:18:50.839Z,1002.12
2023-10-06T01:19:00.855Z,1002.13
2023-10-06T01:19:10.826Z,1002.13
2023-10-06T01:19:20.852Z,1002.12
2023-10-06T01:19:30.868Z,1002.12
2023-10-06T01:19:40.856Z,1002.12
2023-10-06T01:19:50.906Z,1002.11
2023-10-06T01:20:10.881Z,1002.11
2023-10-06T01:20:20.828Z,1002.12
2023-10-06T01:20:30.823Z,1002.12
2023-10-06T01:20:40.862Z,1002.13
2023-10-06T01:20:50.822Z,1002.13
2023-10-06T01:21:00.859Z,1002.14
2023-10-06T01:21:20.824Z,1002.13
2023-10-06T01:21:30.878Z,1002.13
2023-10-06T01:21:40.866Z,1002.13
2023-10-06T01:21:50.829Z,1002.13
2023-10-06T01:22:00.852Z,1002.13
2023-10-06T01:22:10.850Z,1002.14
2023-10-06T01:22:20.868Z,1002.14
2023-10-06T01:22:40.847Z,1002.15
2023-10-06T01:22:50.866Z,1002.14
2023-10-06T01:23:00.921Z,1002.15
2023-10-06T01:23:10.910Z,1002.14
2023-10-06T01:23:20.869Z,1002.15
2023-10-06T01:23:30.863Z,1002.15
2023-10-06T01:23:40.854Z,1002.15
2023-10-06T01:24:00.864Z,1002.14
2023-10-06T01:24:10.828Z,1002.14
2023-10-06T01:24:20.855Z,1002.14
2023-10-06T01:24:30.894Z,1002.14
2023-10-06T01:24:40.862Z,1002.13
2023-10-06T01:24:50.847Z,1002.13
2023-10-06T01:25:00.894Z,1002.13
2023-10-06T01:25:10.844Z,1002.13
2023-10-06T01:25:30.872Z,1002.12
2023-10-06T01:25:40.917Z,1002.12
2023-10-06T01:25:50.852Z,1002.12
2023-10-06T01:26:00.959Z,1002.12
2023-10-06T01:26:10.875Z,1002.11
2023-10-06T01:26:20.863Z,1002.12
2023-10-06T01:26:40.845Z,1002.11
2023-10-06T01:26:50.839Z,1002.11
2023-10-06T01:27:00.844Z,1002.11
2023-10-06T01:27:10.842Z,1002.11
2023-10-06T01:27:20.841Z,1002.11
2023-10-06T01:27:30.849Z,1002.11
2023-10-06T01:27:40.876Z,1002.11
2023-10-06T01:28:00.839Z,1002.11
2023-10-06T01:28:10.887Z,1002.11
2023-10-06T01:28:20.872Z,1002.11
2023-10-06T01:28:30.868Z,1002.11
2023-10-06T01:28:40.891Z,1002.11
2023-10-06T01:28:50.915Z,1002.11
2023-10-06T01:29:00.911Z,1002.10
2023-10-06T01:29:20.854Z,1002.11
2023-10-06T01:29:30.910Z,1002.11
2023-10-06T01:29:40.880Z,1002.11
2023-10-06T01:29:50.891Z,1002.11
2023-10-06T01:30:00.857Z,1002.10
2023-10-06T01:30:10.847Z,1002.11
2023-10-06T01:30:20.850Z,1002.11
2023-10-06T01:30:40.913Z,1002.10
2023-10-06T01:30:50.866Z,1002.10
2023-10-06T01:31:00.927Z,1002.09
2023-10-06T01:31:10.936Z,1002.09
2023-10-06T01:31:20.918Z,1002.09
2023-10-06T01:31:30.899Z,1002.08
2023-10-06T01:31:50.957Z,1002.07
2023-10-06T01:32:00.901Z,1002.07
2023-10-06T01:32:11.007Z,1002.06
2023-10-06T01:32:20.958Z,1002.06
2023-10-06T01:32:30.888Z,1002.06
2023-10-06T01:32:40.906Z,1002.06
2023-10-06T01:33:00.883Z,1002.06
2023-10-06T01:33:10.874Z,1002.06
2023-10-06T01:33:20.858Z,1002.06
2023-10-06T01:33:30.897Z,1002.06
2023-10-06T01:33:40.905Z,1002.05
2023-10-06T01:33:50.909Z,1002.05
2023-10-06T01:34:00.902Z,1002.05
2023-10-06T01:34:10.912Z,1002.05
2023-10-06T01:34:20.875Z,1002.06
2023-10-06T01:34:30.936Z,1002.06
2023-10-06T01:34:50.978Z,1002.07
2023-10-06T01:35:00.901Z,1002.07
2023-10-06T01:35:10.936Z,1002.07
2023-10-06T01:35:20.880Z,1002.07
2023-10-06T01:35:30.898Z,1002.08
2023-10-06T01:35:40.908Z,1002.08
2023-10-06T01:36:00.914Z,1002.09
2023-10-06T01:36:10.927Z,1002.10
2023-10-06T01:36:20.890Z,1002.11
2023-10-06T01:36:30.886Z,1002.12
2023-10-06T01:36:40.919Z,1002.12
2023-10-06T01:36:50.942Z,1002.12
2023-10-06T01:37:10.881Z,1002.13
2023-10-06T01:37:20.891Z,1002.13
2023-10-06T01:37:30.928Z,1002.13
2023-10-06T01:37:40.919Z,1002.13
2023-10-06T01:37:50.918Z,1002.13
2023-10-06T01:38:01.005Z,1002.13
2023-10-06T01:38:10.940Z,1002.13
2023-10-06T01:38:20.925Z,1002.14
2023-10-06T01:38:40.931Z,1002.14
2023-10-06T01:38:50.889Z,1002.14
2023-10-06T01:39:00.930Z,1002.14
2023-10-06T01:39:10.928Z,1002.13
2023-10-06T01:39:20.943Z,1002.13
2023-10-06T01:39:30.911Z,1002.13
2023-10-06T01:39:50.928Z,1002.12
2023-10-06T01:40:00.909Z,1002.12
2023-10-06T01:40:10.898Z,1002.12
2023-10-06T01:40:20.936Z,1002.12
2023-10-06T01:40:30.947Z,1002.12
2023-10-06T01:40:40.934Z,1002.12
2023-10-06T01:40:51.026Z,1002.12
2023-10-06T01:41:00.954Z,1002.12
2023-10-06T01:41:10.925Z,1002.12
2023-10-06T01:41:20.950Z,1002.11
2023-10-06T01:41:30.944Z,1002.11
2023-10-06T01:41:50.911Z,1002.11
2023-10-06T01:42:00.907Z,1002.11
2023-10-06T01:42:10.950Z,1002.10
2023-10-06T01:42:20.914Z,1002.10
2023-10-06T01:42:31.472Z,1002.11
2023-10-06T01:42:40.908Z,1002.11
2023-10-06T01:42:50.946Z,1002.10
2023-10-06T01:43:00.945Z,1002.10
2023-10-06T01:43:20.915Z,1002.10
2023-10-06T01:43:31.389Z,1002.10
2023-10-06T01:43:40.996Z,1002.09
2023-10-06T01:43:50.939Z,1002.10
2023-10-06T01:44:00.995Z,1002.10
2023-10-06T01:44:10.969Z,1002.09
2023-10-06T01:44:20.917Z,1002.09
2023-10-06T01:44:30.957Z,1002.09
2023-10-06T01:44:40.956Z,1002.09
2023-10-06T01:44:50.962Z,1002.09
2023-10-06T01:45:00.949Z,1002.09
2023-10-06T01:45:10.932Z,1002.09
2023-10-06T01:45:20.925Z,1002.09
2023-10-06T01:45:40.949Z,1002.08
2023-10-06T01:45:50.971Z,1002.08
2023-10-06T01:46:01.207Z,1002.08
2023-10-06T01:46:10.968Z,1002.08
2023-10-06T01:46:20.960Z,1002.07
2023-10-06T01:46:30.954Z,1002.07
2023-10-06T01:46:41.000Z,1002.07
2023-10-06T01:47:00.990Z,1002.06
2023-10-06T01:47:10.981Z,1002.07
2023-10-06T01:47:20.978Z,1002.06
2023-10-06T01:47:31.014Z,1002.06
2023-10-06T01:47:40.953Z,1002.06
2023-10-06T01:47:50.941Z,1002.06
2023-10-06T01:48:01.009Z,1002.05
2023-10-06T01:48:20.973Z,1002.05
2023-10-06T01:48:31.093Z,1002.05
2023-10-06T01:48:40.978Z,1002.04
2023-10-06T01:48:50.935Z,1002.04
2023-10-06T01:49:00.960Z,1002.04
2023-10-06T01:49:12.468Z,1002.03
2023-10-06T01:49:20.975Z,1002.03
2023-10-06T01:49:30.980Z,1002.04
2023-10-06T01:49:51.013Z,1002.04
2023-10-06T01:50:01.060Z,1002.04
2023-10-06T01:50:10.995Z,1002.03
2023-10-06T01:50:20.945Z,1002.03
2023-10-06T01:50:30.990Z,1002.02
2023-10-06T01:50:40.979Z,1002.02
2023-10-06T01:50:50.969Z,1002.02
2023-10-06T01:51:10.948Z,1002.03
2023-10-06T01:51:20.960Z,1002.03
2023-10-06T01:51:30.956Z,1002.03
2023-10-06T01:51:40.990Z,1002.03
2023-10-06T01:52:06.394Z,1002.02
2023-10-06T01:52:13.674Z,1002.03
2023-10-06T01:52:18.773Z,1002.03
2023-10-06T01:52:28.766Z,1002.04
2023-10-06T01:52:38.877Z,1002.04
2023-10-06T01:52:48.852Z,1002.04
2023-10-06T01:52:58.876Z,1002.05
2023-10-06T01:53:18.782Z,1002.05
2023-10-06T01:53:28.813Z,1002.05
2023-10-06T01:53:38.858Z,1002.06
2023-10-06T01:53:48.822Z,1002.06
2023-10-06T01:53:58.815Z,1002.06
2023-10-06T01:54:08.788Z,1002.07
2023-10-06T01:54:18.821Z,1002.08
2023-10-06T01:54:38.919Z,1002.08
2023-10-06T01:54:48.786Z,1002.08
2023-10-06T01:54:58.820Z,1002.09
2023-10-06T01:55:08.787Z,1002.09
2023-10-06T01:55:18.790Z,1002.10
2023-10-06T01:55:28.831Z,1002.10
2023-10-06T01:55:48.811Z,1002.10
2023-10-06T01:55:58.833Z,1002.10
2023-10-06T01:56:09.034Z,1002.09
2023-10-06T01:56:18.829Z,1002.10
2023-10-06T01:56:28.818Z,1002.10
2023-10-06T01:56:38.900Z,1002.10
2023-10-06T01:56:48.790Z,1002.10
2023-10-06T01:56:58.820Z,1002.09
2023-10-06T01:57:08.830Z,1002.10
2023-10-06T01:57:28.789Z,1002.09
2023-10-06T01:57:38.875Z,1002.08
2023-10-06T01:57:48.822Z,1002.09
2023-10-06T01:57:58.826Z,1002.08
2023-10-06T01:58:08.836Z,1002.07
2023-10-06T01:58:18.821Z,1002.07
2023-10-06T01:58:28.831Z,1002.07
2023-10-06T01:58:48.881Z,1002.07
2023-10-06T01:58:58.842Z,1002.08
2023-10-06T01:59:08.992Z,1002.08
2023-10-06T01:59:18.848Z,1002.07
2023-10-06T01:59:28.801Z,1002.07
2023-10-06T01:59:38.888Z,1002.07
2023-10-06T01:59:58.806Z,1002.07
2023-10-06T02:00:08.833Z,1002.07
2023-10-06T02:00:18.822Z,1002.07
2023-10-06T02:00:28.855Z,1002.07
2023-10-06T02:00:38.906Z,1002.07
2023-10-06T02:00:48.811Z,1002.07
2023-10-06T02:00:58.890Z,1002.07
2023-10-06T02:01:08.865Z,1002.06
2023-10-06T02:01:18.858Z,1002.06
2023-10-06T02:01:38.978Z,1002.07
2023-10-06T02:01:48.856Z,1002.06
2023-10-06T02:01:58.855Z,1002.06
2023-10-06T02:02:09.094Z,1002.06
2023-10-06T02:02:18.882Z,1002.07
2023-10-06T02:02:28.908Z,1002.06
2023-10-06T02:02:38.922Z,1002.05
2023-10-06T02:02:48.891Z,1002.05
2023-10-06T02:03:08.889Z,1002.03
2023-10-06T02:03:18.937Z,1002.03
2023-10-06T02:03:28.953Z,1002.03
2023-10-06T02:03:38.981Z,1002.02
2023-10-06T02:03:48.934Z,1002.02
2023-10-06T02:03:58.824Z,1002.01
2023-10-06T02:04:08.821Z,1002.02
2023-10-06T02:04:18.851Z,1002.02
2023-10-06T02:04:38.909Z,1001.99
2023-10-06T02:04:48.952Z,1001.99
2023-10-06T02:04:58.903Z,1001.99
2023-10-06T02:05:08.923Z,1001.98
2023-10-06T02:05:18.838Z,1001.98
2023-10-06T02:05:28.856Z,1001.97
2023-10-06T02:05:48.862Z,1001.96
2023-10-06T02:05:58.858Z,1001.95
2023-10-06T02:06:08.827Z,1001.95
2023-10-06T02:06:18.856Z,1001.95
2023-10-06T02:06:28.835Z,1001.95
2023-10-06T02:06:38.928Z,1001.95
2023-10-06T02:06:48.869Z,1001.94
2023-10-06T02:06:58.863Z,1001.93
2023-10-06T02:07:08.882Z,1001.93
2023-10-06T02:07:18.880Z,1001.93
2023-10-06T02:07:38.972Z,1001.92
2023-10-06T02:07:48.873Z,1001.93
2023-10-06T02:07:58.884Z,1001.92
2023-10-06T02:08:08.912Z,1001.93
2023-10-06T02:08:18.865Z,1001.91
2023-10-06T02:08:28.885Z,1001.91
2023-10-06T02:08:38.952Z,1001.91
2023-10-06T02:08:48.879Z,1001.91
2023-10-06T02:08:58.867Z,1001.90
2023-10-06T02:09:18.864Z,1001.89
2023-10-06T02:09:28.848Z,1001.89
2023-10-06T02:09:38.967Z,1001.89
2023-10-06T02:09:48.865Z,1001.89
2023-10-06T02:09:58.888Z,1001.88
2023-10-06T02:10:08.873Z,1001.87
2023-10-06T02:10:18.882Z,1001.86
2023-10-06T02:10:28.848Z,1001.86
2023-10-06T02:10:48.943Z,1001.86
2023-10-06T02:10:58.877Z,1001.85
2023-10-06T02:11:08.902Z,1001.86
2023-10-06T02:11:18.852Z,1001.85
2023-10-06T02:11:28.877Z,1001.84
2023-10-06T02:11:38.860Z,1001.84
2023-10-06T02:11:48.879Z,1001.84
2023-10-06T02:11:58.853Z,1001.84
2023-10-06T02:12:09.490Z,1001.84
2023-10-06T02:12:18.885Z,1001.84
2023-10-06T02:12:28.885Z,1001.83
2023-10-06T02:12:38.957Z,1001.83
2023-10-06T02:12:48.889Z,1001.82
2023-10-06T02:12:58.892Z,1001.83
2023-10-06T02:13:18.915Z,1001.82
2023-10-06T02:13:28.903Z,1001.83
2023-10-06T02:13:39.026Z,1001.83
2023-10-06T02:13:48.887Z,1001.84
2023-10-06T02:13:59.116Z,1001.84
2023-10-06T02:14:08.933Z,1001.84
2023-10-06T02:14:28.866Z,1001.85
2023-10-06T02:14:39.024Z,1001.83
2023-10-06T02:14:48.893Z,1001.83
2023-10-06T02:14:58.883Z,1001.84
2023-10-06T02:15:08.893Z,1001.83
2023-10-06T02:15:18.874Z,1001.85
2023-10-06T02:15:28.874Z,1001.84
2023-10-06T02:15:48.902Z,1001.85
2023-10-06T02:15:58.882Z,1001.86
2023-10-06T02:16:08.878Z,1001.86
2023-10-06T02:16:18.899Z,1001.86
2023-10-06T02:16:28.881Z,1001.85